createdAt,value
2023-05-11T00:04:24.599Z,100.00
2023-05-11T00:09:32.647Z,97.66
2023-05-11T00:14:37.828Z,94.31
2023-05-11T00:19:42.859Z,98.52
2023-05-11T00:24:50.536Z,95.71
2023-05-11T00:29:55.656Z,98.46
2023-05-11T00:35:00.687Z,100.00
2023-05-11T00:40:09.871Z,99.37
2023-05-11T00:45:14.969Z,100.00
2023-05-11T00:50:21.613Z,100.00
2023-05-11T00:55:30.498Z,100.00
2023-05-11T01:00:37.888Z,100.00
2023-05-11T01:05:51.680Z,100.00
2023-05-11T01:11:06.121Z,100.00
2023-05-11T01:16:17.381Z,100.00
2023-05-11T01:21:22.991Z,99.50
2023-05-11T01:26:48.315Z,99.00
2023-05-11T01:32:02.950Z,98.03
2023-05-11T01:37:13.762Z,97.20
2023-05-11T01:42:23.388Z,96.92
2023-05-11T01:47:33.450Z,96.85
2023-05-11T01:52:41.139Z,96.89
2023-05-11T01:57:47.280Z,96.83
2023-05-11T02:02:59.561Z,97.24
2023-05-11T02:08:09.100Z,96.92
2023-05-11T02:13:14.507Z,97.61
2023-05-11T02:18:23.836Z,96.75
2023-05-11T02:23:37.313Z,95.31
2023-05-11T02:28:44.016Z,95.67
2023-05-11T02:33:53.383Z,95.59
2023-05-11T02:39:05.665Z,94.62
2023-05-11T02:44:16.456Z,95.31
2023-05-11T02:49:28.561Z,96.05
2023-05-11T02:54:35.675Z,96.20
2023-05-11T02:59:41.189Z,95.80
2023-05-11T03:04:49.053Z,95.54
2023-05-11T03:09:54.322Z,95.92
2023-05-11T03:15:01.375Z,95.99
2023-05-11T03:20:13.234Z,95.66
2023-05-11T03:25:20.293Z,95.22
2023-05-11T03:30:26.191Z,95.50
2023-05-11T03:35:38.202Z,96.29
2023-05-11T03:40:44.938Z,96.73
2023-05-11T03:45:53.774Z,96.45
2023-05-11T03:51:03.647Z,97.29
2023-05-11T03:56:11.234Z,97.67
2023-05-11T04:01:16.895Z,97.59
2023-05-11T04:06:24.746Z,97.98
2023-05-11T04:11:40.372Z,97.34
2023-05-11T04:16:45.727Z,96.54
2023-05-11T04:21:53.478Z,96.21
2023-05-11T04:27:01.622Z,94.54
2023-05-11T04:32:07.439Z,93.73
2023-05-11T04:37:15.285Z,92.50
2023-05-11T04:42:22.616Z,92.71
2023-05-11T04:47:33.388Z,92.52
2023-05-11T04:52:43.403Z,91.72
2023-05-11T04:57:48.649Z,91.23
2023-05-11T05:02:57.345Z,90.03
2023-05-11T05:08:07.597Z,90.88
2023-05-11T05:13:12.895Z,88.72
2023-05-11T05:18:19.017Z,84.98
2023-05-11T05:23:28.277Z,78.48
2023-05-11T05:28:38.120Z,77.80
2023-05-11T05:33:43.484Z,79.88
2023-05-11T05:38:51.250Z,80.51
2023-05-11T05:43:57.888Z,80.72
2023-05-11T05:49:03.028Z,79.43
2023-05-11T05:54:11.587Z,80.61
2023-05-11T05:59:16.918Z,77.19
2023-05-11T06:04:25.065Z,74.23
2023-05-11T06:09:36.195Z,74.79
2023-05-11T06:14:44.803Z,72.95
2023-05-11T06:19:52.620Z,72.71
2023-05-11T06:25:09.408Z,70.56
2023-05-11T06:30:15.822Z,71.04
2023-05-11T06:35:21.793Z,68.48
2023-05-11T06:40:29.723Z,70.54
2023-05-11T06:45:35.169Z,70.24
2023-05-11T06:50:40.930Z,70.73
2023-05-11T06:55:52.784Z,71.95
2023-05-11T07:01:03.592Z,66.39
2023-05-11T07:06:10.773Z,70.97
2023-05-11T07:11:19.201Z,70.67
2023-05-11T07:16:24.933Z,67.13
2023-05-11T07:21:30.112Z,71.62
2023-05-11T07:26:37.878Z,67.78
2023-05-11T07:31:43.218Z,72.23
2023-05-11T07:36:50.679Z,72.62
2023-05-11T07:41:59.029Z,71.47
2023-05-11T07:47:05.627Z,72.11
2023-05-11T07:52:12.661Z,70.95
2023-05-11T07:57:22.831Z,71.25
2023-05-11T08:02:30.373Z,71.32
2023-05-11T08:07:35.880Z,70.79
2023-05-11T08:12:43.894Z,68.47
2023-05-11T08:17:49.301Z,67.31
2023-05-11T08:22:56.451Z,69.20
2023-05-11T08:28:04.445Z,67.27
2023-05-11T08:33:29.003Z,68.18
2023-05-11T08:38:35.956Z,65.20
2023-05-11T08:43:44.346Z,68.44
2023-05-11T08:48:49.902Z,67.07
2023-05-11T08:54:00.276Z,67.00
2023-05-11T08:59:11.613Z,66.98
2023-05-11T09:04:18.533Z,65.86
2023-05-11T09:09:23.537Z,65.56
2023-05-11T09:14:31.415Z,65.37
2023-05-11T09:19:38.577Z,60.75
2023-05-11T09:24:45.566Z,59.48
2023-05-11T09:29:56.413Z,59.46
2023-05-11T09:35:05.868Z,59.53
2023-05-11T09:40:26.969Z,60.13
2023-05-11T09:45:43.384Z,57.92
2023-05-11T09:50:49.207Z,58.52
2023-05-11T09:55:55.506Z,56.82
2023-05-11T10:01:06.508Z,55.83
2023-05-11T10:06:12.251Z,54.28
2023-05-11T10:11:18.315Z,54.51
2023-05-11T10:16:27.197Z,52.43
2023-05-11T10:21:32.797Z,53.35
2023-05-11T10:26:39.328Z,52.11
2023-05-11T10:31:51.934Z,53.40
2023-05-11T10:36:59.418Z,54.07
2023-05-11T10:42:23.748Z,53.83
2023-05-11T10:47:56.521Z,52.73
2023-05-11T10:53:19.053Z,50.69
2023-05-11T10:58:38.932Z,51.36
2023-05-11T11:04:02.033Z,51.23
2023-05-11T11:09:11.462Z,50.93
2023-05-11T11:14:18.665Z,51.37
2023-05-11T11:19:45.113Z,51.71
2023-05-11T11:24:50.175Z,52.85
2023-05-11T11:30:20.377Z,52.02
2023-05-11T11:35:52.489Z,51.63
2023-05-11T11:41:00.114Z,51.67
2023-05-11T11:46:06.587Z,54.88
2023-05-11T11:51:15.706Z,55.93
2023-05-11T11:56:57.148Z,55.30
2023-05-11T12:02:11.748Z,55.51
2023-05-11T12:07:24.564Z,56.92
2023-05-11T12:12:30.358Z,57.01
2023-05-11T12:17:37.246Z,55.80
2023-05-11T12:22:45.309Z,56.07
2023-05-11T12:27:52.793Z,55.39
2023-05-11T12:32:59.631Z,55.32
2023-05-11T12:38:07.627Z,55.43
2023-05-11T12:43:21.094Z,57.13
2023-05-11T12:48:26.366Z,57.41
2023-05-11T12:53:39.041Z,58.26
2023-05-11T12:58:44.972Z,57.08
2023-05-11T13:03:54.999Z,56.13
2023-05-11T13:09:09.510Z,57.40
2023-05-11T13:14:20.749Z,56.33
2023-05-11T13:19:35.007Z,56.29
2023-05-11T13:24:42.730Z,56.96
2023-05-11T13:29:49.164Z,55.94
2023-05-11T13:34:54.571Z,56.38
2023-05-11T13:40:03.274Z,54.07
2023-05-11T13:45:09.753Z,55.86
2023-05-11T13:50:19.175Z,57.18
2023-05-11T13:55:26.954Z,56.81
2023-05-11T14:00:36.250Z,55.26
2023-05-11T14:05:41.535Z,55.58
2023-05-11T14:10:49.551Z,56.52
2023-05-11T14:15:56.162Z,56.30
2023-05-11T14:21:04.258Z,56.30
2023-05-11T14:26:13.342Z,54.38
2023-05-11T14:31:21.710Z,54.37
2023-05-11T14:36:26.878Z,55.41
2023-05-11T14:41:35.754Z,54.56
2023-05-11T14:46:43.362Z,54.37
2023-05-11T14:51:49.476Z,53.61
2023-05-11T14:56:59.466Z,51.68
2023-05-11T15:02:05.393Z,51.08
2023-05-11T15:07:11.085Z,51.52
2023-05-11T15:12:18.963Z,51.57
2023-05-11T15:17:24.357Z,54.09
2023-05-11T15:22:31.015Z,56.34
2023-05-11T15:27:39.026Z,56.19
2023-05-11T15:32:44.129Z,56.25
2023-05-11T15:37:49.240Z,56.22
2023-05-11T15:42:58.467Z,55.65
2023-05-11T15:48:05.133Z,55.43
2023-05-11T15:53:10.241Z,55.17
2023-05-11T15:58:18.077Z,55.16
2023-05-11T16:03:25.512Z,55.27
2023-05-11T16:08:31.495Z,52.65
2023-05-11T16:13:40.197Z,51.40
2023-05-11T16:18:46.682Z,51.64
2023-05-11T16:23:51.661Z,51.54
2023-05-11T16:28:59.347Z,52.93
2023-05-11T16:34:04.472Z,54.02
2023-05-11T16:39:10.281Z,54.73
2023-05-11T16:44:18.098Z,53.48
2023-05-11T16:49:23.151Z,53.77
2023-05-11T16:54:29.328Z,54.49
2023-05-11T16:59:37.045Z,54.45
2023-05-11T17:04:42.350Z,54.41
2023-05-11T17:09:53.478Z,54.61
2023-05-11T17:15:01.395Z,55.43
2023-05-11T17:20:08.111Z,55.17
2023-05-11T17:25:13.233Z,56.09
2023-05-11T17:30:22.227Z,56.41
2023-05-11T17:35:28.936Z,56.83
2023-05-11T17:40:34.106Z,57.37
2023-05-11T17:45:41.885Z,57.14
2023-05-11T17:50:46.949Z,56.93
2023-05-11T17:55:53.560Z,56.37
2023-05-11T18:01:01.374Z,56.20
2023-05-11T18:06:08.090Z,56.08
2023-05-11T18:11:14.074Z,56.38
2023-05-11T18:16:22.844Z,57.05
2023-05-11T18:21:28.376Z,57.61
2023-05-11T18:26:33.454Z,58.07
2023-05-11T18:31:41.190Z,59.29
2023-05-11T18:36:46.504Z,60.29
2023-05-11T18:41:51.513Z,60.48
2023-05-11T18:46:59.212Z,61.28
2023-05-11T18:52:04.372Z,62.13
2023-05-11T18:57:11.510Z,62.30
2023-05-11T19:02:19.247Z,62.80
2023-05-11T19:07:24.377Z,62.48
2023-05-11T19:12:29.657Z,63.72
2023-05-11T19:17:37.658Z,64.89
2023-05-11T19:22:43.389Z,65.60
2023-05-11T19:27:48.524Z,65.54
2023-05-11T19:32:56.117Z,66.98
2023-05-11T19:38:01.173Z,66.70
2023-05-11T19:43:06.830Z,67.14
2023-05-11T19:48:15.022Z,66.81
2023-05-11T19:53:20.040Z,68.37
2023-05-11T19:58:25.914Z,69.33
2023-05-11T20:03:36.053Z,68.75
2023-05-11T20:08:41.237Z,69.38
2023-05-11T20:13:47.982Z,69.42
2023-05-11T20:18:55.920Z,69.58
2023-05-11T20:24:01.126Z,70.50
2023-05-11T20:29:07.997Z,70.77
2023-05-11T20:34:15.721Z,70.27
2023-05-11T20:39:23.618Z,69.78
2023-05-11T20:44:29.620Z,68.86
2023-05-11T20:49:39.177Z,69.03
2023-05-11T20:54:44.845Z,69.39
2023-05-11T21:05:02.609Z,69.82
2023-05-11T21:10:08.517Z,70.91
2023-05-11T21:15:13.626Z,71.29
2023-05-11T21:20:21.696Z,71.60
2023-05-11T21:25:26.883Z,71.38
2023-05-11T21:30:32.001Z,70.64
2023-05-11T21:35:39.681Z,69.52
2023-05-11T21:40:47.405Z,70.05
2023-05-11T21:45:53.442Z,72.02
2023-05-11T21:51:01.113Z,73.19
2023-05-11T21:56:10.060Z,74.77
2023-05-11T22:01:15.294Z,73.58
2023-05-11T22:06:22.935Z,74.59
2023-05-11T22:11:27.996Z,75.79
2023-05-11T22:16:33.279Z,73.40
2023-05-11T22:21:41.448Z,72.50
2023-05-11T22:26:46.822Z,71.44
2023-05-11T22:31:53.951Z,72.80
2023-05-11T22:37:01.794Z,72.39
2023-05-11T22:42:07.236Z,73.38
2023-05-11T22:47:12.322Z,76.06
2023-05-11T22:52:20.011Z,75.00
2023-05-11T22:57:25.261Z,73.01
2023-05-11T23:02:30.691Z,72.76
2023-05-11T23:07:38.488Z,74.80
2023-05-11T23:12:43.570Z,72.12
2023-05-11T23:17:48.695Z,71.71
2023-05-11T23:22:56.480Z,71.64
2023-05-11T23:28:03.906Z,71.36
2023-05-11T23:33:09.640Z,71.70
2023-05-11T23:38:17.388Z,74.43
2023-05-11T23:43:26.046Z,74.68
2023-05-11T23:48:31.352Z,76.98
2023-05-11T23:53:38.984Z,77.31
2023-05-11T23:58:45.904Z,74.90
